Selawik Airport
PASK : now visible

Airfield :











YOU CAN JOIN US ON...

 
LOGIN :

Register | Disclaimer

   EN    FR    IT 

 









Legend :    VFR   Marginal VFR   IFR   Intensive IFR   Very Intensive IFR
Visi :
Ceiling :
>= 8 km
>= 3000ft
5 to 8 km
1000 to 3000 ft
1500m to 5 km
500 to 1000 ft
800 to 1500m
200 to 500 ft
< 800m
< 200 ft
Symbols :   Thunderstorms  Fog  Heavy snow  Heavy precipitations  Wind > 20 kt






- Airport Elevation : 17 ft


PASK - Selawik

CURRENT METAR :
  • 280456Z AUTO 01003KT 10SM OVC047 00/M02 A2967 RMK AO2 SLP043 P0001 T00001017 FZRANO

EXPIRED METARs :
  • 280356Z AUTO 00000KT 10SM FEW010 OVC047 01/M02 A2967 RMK AO2 SLP043 T00061017 FZRANO
  • 280256Z AUTO 00000KT 10SM OVC047 02/M01 A2967 RMK AO2 SLP044 T00171006 56004 FZRANO
  • 280156Z AUTO 22003KT 10SM FEW022 OVC045 02/00 A2967 RMK AO2 SLP045 T00170000 FZRANO

TAF N/A
PAZA FIR / North America



MET'MAP, your aeronautical weather chart ! - Copyright ORBIFLY December 2007 - Disclaimer

ORBIFLY MET'MAP TEAM :

Programming & Development : Alexandra Zaïnal
Concept & original design : Baudouin d'Aumeries
Assistance for programming : Marc-Olivier Méhu
Technical & hardware support : Manuel Goepfert

Contact : metmap@orbifly.com




SOURCES & CREDITS :

   NOAA       Earth
Advisory